createdAt,value
2019-05-07T00:01:27.000Z,1020.18
2019-05-07T00:06:14.000Z,1020.20
2019-05-07T00:11:00.000Z,1020.21
2019-05-07T00:15:47.000Z,1020.18
2019-05-07T00:20:36.000Z,1020.15
2019-05-07T00:25:22.000Z,1020.20
2019-05-07T00:30:09.000Z,1020.21
2019-05-07T00:34:57.000Z,1020.11
2019-05-07T00:39:43.000Z,1020.08
2019-05-07T00:44:30.000Z,1020.10
2019-05-07T00:49:17.000Z,1020.06
2019-05-07T00:54:04.000Z,1020.07
2019-05-07T00:58:52.000Z,1020.04
2019-05-07T01:03:38.000Z,1020.04
2019-05-07T01:08:25.000Z,1020.06
2019-05-07T01:13:12.000Z,1020.01
2019-05-07T01:17:59.000Z,1020.03
2019-05-07T01:22:46.000Z,1020.03
2019-05-07T01:27:34.000Z,1020.06
2019-05-07T01:32:22.000Z,1020.06
2019-05-07T01:37:08.000Z,1020.03
2019-05-07T01:41:56.000Z,1020.05
2019-05-07T01:46:42.000Z,1020.04
2019-05-07T01:51:30.000Z,1020.03
2019-05-07T01:56:16.000Z,1020.01
2019-05-07T02:01:03.000Z,1020.03
2019-05-07T02:05:50.000Z,1020.02
2019-05-07T02:10:37.000Z,1019.99
2019-05-07T02:15:24.000Z,1020.01
2019-05-07T02:20:11.000Z,1020.01
2019-05-07T02:24:58.000Z,1020.02
2019-05-07T02:29:45.000Z,1020.00
2019-05-07T02:34:32.000Z,1020.01
2019-05-07T02:39:19.000Z,1019.97
2019-05-07T02:44:06.000Z,1019.95
2019-05-07T02:48:54.000Z,1020.01
2019-05-07T02:53:42.000Z,1019.95
2019-05-07T02:58:28.000Z,1020.00
2019-05-07T03:03:16.000Z,1019.95
2019-05-07T03:08:03.000Z,1019.91
2019-05-07T03:12:50.000Z,1019.95
2019-05-07T03:17:37.000Z,1019.97
2019-05-07T03:22:25.000Z,1019.98
2019-05-07T03:27:15.000Z,1019.90
2019-05-07T03:32:01.000Z,1019.97
2019-05-07T03:36:49.000Z,1019.93
2019-05-07T03:41:37.000Z,1019.95
2019-05-07T03:46:25.000Z,1020.01
2019-05-07T03:51:13.000Z,1019.98
2019-05-07T03:56:01.000Z,1019.99
2019-05-07T04:00:48.000Z,1020.00
2019-05-07T04:05:37.000Z,1020.00
2019-05-07T04:10:25.000Z,1019.99
2019-05-07T04:15:12.000Z,1019.97
2019-05-07T04:20:00.000Z,1020.04
2019-05-07T04:24:50.000Z,1020.07
2019-05-07T04:29:36.000Z,1020.11
2019-05-07T04:34:25.000Z,1020.11
2019-05-07T04:39:13.000Z,1020.10
2019-05-07T04:44:02.000Z,1020.08
2019-05-07T04:48:50.000Z,1020.08
2019-05-07T04:53:38.000Z,1020.09
2019-05-07T04:58:26.000Z,1020.06
2019-05-07T05:08:03.000Z,1020.12
2019-05-07T05:12:51.000Z,1020.10
2019-05-07T05:17:39.000Z,1020.13
2019-05-07T05:22:27.000Z,1020.19
2019-05-07T05:27:16.000Z,1020.24
2019-05-07T05:32:04.000Z,1020.28
2019-05-07T05:36:52.000Z,1020.27
2019-05-07T05:41:40.000Z,1020.29
2019-05-07T05:46:29.000Z,1020.32
2019-05-07T05:51:17.000Z,1020.30
2019-05-07T05:56:05.000Z,1020.35
2019-05-07T06:00:54.000Z,1020.37
2019-05-07T06:05:42.000Z,1020.33
2019-05-07T06:10:30.000Z,1020.32
2019-05-07T06:15:18.000Z,1020.32
2019-05-07T06:20:07.000Z,1020.36
2019-05-07T06:24:55.000Z,1020.43
2019-05-07T06:29:44.000Z,1020.37
2019-05-07T06:34:34.000Z,1020.33
2019-05-07T06:39:24.000Z,1020.37
2019-05-07T06:44:13.000Z,1020.39
2019-05-07T06:49:03.000Z,1020.44
2019-05-07T06:53:52.000Z,1020.39
2019-05-07T06:58:41.000Z,1020.40
2019-05-07T07:03:30.000Z,1020.40
2019-05-07T07:08:19.000Z,1020.37
2019-05-07T07:13:07.000Z,1020.34
2019-05-07T07:17:56.000Z,1020.25
2019-05-07T07:22:45.000Z,1020.22
2019-05-07T07:27:34.000Z,1020.10
2019-05-07T07:32:23.000Z,1020.08
2019-05-07T07:37:12.000Z,1020.07
2019-05-07T07:42:01.000Z,1020.06
2019-05-07T07:46:50.000Z,1020.00
2019-05-07T07:51:39.000Z,1019.87
2019-05-07T07:56:28.000Z,1019.90
2019-05-07T08:01:17.000Z,1019.85
2019-05-07T08:06:06.000Z,1019.76
2019-05-07T08:10:54.000Z,1019.74
2019-05-07T08:15:43.000Z,1019.67
2019-05-07T08:20:32.000Z,1019.65
2019-05-07T08:25:20.000Z,1019.63
2019-05-07T08:30:08.000Z,1019.55
2019-05-07T08:34:54.000Z,1019.47
2019-05-07T08:39:41.000Z,1019.47
2019-05-07T08:44:30.000Z,1019.48
2019-05-07T08:49:16.000Z,1019.44
2019-05-07T08:54:03.000Z,1019.42
2019-05-07T08:58:52.000Z,1019.32
2019-05-07T09:03:38.000Z,1019.27
2019-05-07T09:08:26.000Z,1019.27
2019-05-07T09:13:14.000Z,1019.18
2019-05-07T09:18:01.000Z,1019.18
2019-05-07T09:22:49.000Z,1019.12
2019-05-07T09:27:37.000Z,1019.09
2019-05-07T09:32:25.000Z,1019.14
2019-05-07T09:37:13.000Z,1019.16
2019-05-07T09:42:01.000Z,1019.10
2019-05-07T09:46:48.000Z,1019.08
2019-05-07T09:51:36.000Z,1019.02
2019-05-07T09:56:24.000Z,1019.08
2019-05-07T10:01:13.000Z,1019.00
2019-05-07T10:06:01.000Z,1019.02
2019-05-07T10:10:49.000Z,1019.01
2019-05-07T10:15:37.000Z,1018.98
2019-05-07T10:20:25.000Z,1018.94
2019-05-07T10:25:14.000Z,1018.96
2019-05-07T10:30:02.000Z,1018.90
2019-05-07T10:34:50.000Z,1018.91
2019-05-07T10:39:39.000Z,1018.89
2019-05-07T10:44:26.000Z,1018.86
2019-05-07T10:49:14.000Z,1018.88
2019-05-07T10:54:02.000Z,1018.84
2019-05-07T10:58:51.000Z,1018.80
2019-05-07T11:03:40.000Z,1018.76
2019-05-07T11:08:30.000Z,1018.73
2019-05-07T11:13:20.000Z,1018.70
2019-05-07T11:18:08.000Z,1018.61
2019-05-07T11:22:56.000Z,1018.55
2019-05-07T11:27:44.000Z,1018.49
2019-05-07T11:32:31.000Z,1018.38
2019-05-07T11:37:19.000Z,1018.44
2019-05-07T11:42:07.000Z,1018.40
2019-05-07T11:46:55.000Z,1018.39
2019-05-07T11:51:42.000Z,1018.40
2019-05-07T11:56:30.000Z,1018.40
2019-05-07T12:01:18.000Z,1018.35
2019-05-07T12:06:06.000Z,1018.31
2019-05-07T12:10:58.000Z,1018.26
2019-05-07T12:15:42.000Z,1018.27
2019-05-07T12:20:30.000Z,1018.21
2019-05-07T12:25:19.000Z,1018.16
2019-05-07T12:30:08.000Z,1018.11
2019-05-07T12:34:56.000Z,1018.01
2019-05-07T12:39:44.000Z,1017.93
2019-05-07T12:44:33.000Z,1017.92
2019-05-07T12:49:21.000Z,1017.85
2019-05-07T12:54:10.000Z,1017.84
2019-05-07T12:58:58.000Z,1017.82
2019-05-07T13:03:46.000Z,1017.73
2019-05-07T13:08:33.000Z,1017.74
2019-05-07T13:13:22.000Z,1017.74
2019-05-07T13:18:09.000Z,1017.74
2019-05-07T13:22:57.000Z,1017.71
2019-05-07T13:27:46.000Z,1017.68
2019-05-07T13:32:34.000Z,1017.69
2019-05-07T13:37:22.000Z,1017.66
2019-05-07T13:42:10.000Z,1017.65
2019-05-07T13:46:59.000Z,1017.72
2019-05-07T13:51:46.000Z,1017.62
2019-05-07T13:56:33.000Z,1017.57
2019-05-07T14:01:22.000Z,1017.47
2019-05-07T14:06:10.000Z,1017.39
2019-05-07T14:10:59.000Z,1017.33
2019-05-07T14:15:46.000Z,1017.34
2019-05-07T14:20:34.000Z,1017.35
2019-05-07T14:25:22.000Z,1017.26
2019-05-07T14:30:10.000Z,1017.29
2019-05-07T14:34:58.000Z,1017.22
2019-05-07T14:39:46.000Z,1017.18
2019-05-07T14:44:35.000Z,1017.22
2019-05-07T14:49:23.000Z,1017.19
2019-05-07T14:54:12.000Z,1017.17
2019-05-07T14:59:00.000Z,1017.13
2019-05-07T15:03:48.000Z,1017.11
2019-05-07T15:08:37.000Z,1017.02
2019-05-07T15:13:25.000Z,1017.02
2019-05-07T15:18:14.000Z,1016.98
2019-05-07T15:23:02.000Z,1017.04
2019-05-07T15:27:50.000Z,1017.01
2019-05-07T15:32:38.000Z,1017.00
2019-05-07T15:37:28.000Z,1016.92
2019-05-07T15:42:14.000Z,1016.91
2019-05-07T15:47:02.000Z,1016.93
2019-05-07T15:51:50.000Z,1016.89
2019-05-07T15:56:38.000Z,1016.92
2019-05-07T16:01:26.000Z,1016.91
2019-05-07T16:06:15.000Z,1016.84
2019-05-07T16:11:04.000Z,1016.85
2019-05-07T16:15:51.000Z,1016.78
2019-05-07T16:20:41.000Z,1016.78
2019-05-07T16:25:28.000Z,1016.76
2019-05-07T16:30:18.000Z,1016.78
2019-05-07T16:35:05.000Z,1016.72
2019-05-07T16:39:53.000Z,1016.69
2019-05-07T16:44:41.000Z,1016.75
2019-05-07T16:49:29.000Z,1016.70
2019-05-07T16:54:17.000Z,1016.71
2019-05-07T16:59:05.000Z,1016.70
2019-05-07T17:03:53.000Z,1016.60
2019-05-07T17:08:41.000Z,1016.60
2019-05-07T17:13:29.000Z,1016.63
2019-05-07T17:18:17.000Z,1016.53
2019-05-07T17:23:05.000Z,1016.54
2019-05-07T17:27:53.000Z,1016.55
2019-05-07T17:32:41.000Z,1016.54
2019-05-07T17:37:30.000Z,1016.49
2019-05-07T17:42:16.000Z,1016.47
2019-05-07T17:47:04.000Z,1016.50
2019-05-07T17:51:53.000Z,1016.52
2019-05-07T17:56:43.000Z,1016.56
2019-05-07T18:01:29.000Z,1016.54
2019-05-07T18:06:17.000Z,1016.53
2019-05-07T18:11:04.000Z,1016.52
2019-05-07T18:15:52.000Z,1016.49
2019-05-07T18:20:41.000Z,1016.52
2019-05-07T18:25:30.000Z,1016.52
2019-05-07T18:30:16.000Z,1016.46
2019-05-07T18:35:03.000Z,1016.46
2019-05-07T18:39:51.000Z,1016.43
2019-05-07T18:44:39.000Z,1016.42
2019-05-07T18:49:28.000Z,1016.42
2019-05-07T18:54:14.000Z,1016.47
2019-05-07T18:59:02.000Z,1016.49
2019-05-07T19:03:48.000Z,1016.49
2019-05-07T19:08:36.000Z,1016.52
2019-05-07T19:13:22.000Z,1016.55
2019-05-07T19:18:10.000Z,1016.54
2019-05-07T19:22:57.000Z,1016.50
2019-05-07T19:27:44.000Z,1016.51
2019-05-07T19:32:32.000Z,1016.48
2019-05-07T19:37:18.000Z,1016.47
2019-05-07T19:42:05.000Z,1016.57
2019-05-07T19:46:53.000Z,1016.54
2019-05-07T19:51:39.000Z,1016.49
2019-05-07T19:56:26.000Z,1016.55
2019-05-07T20:01:13.000Z,1016.50
2019-05-07T20:06:01.000Z,1016.56
2019-05-07T20:10:48.000Z,1016.42
2019-05-07T20:15:35.000Z,1016.40
2019-05-07T20:20:22.000Z,1016.39
2019-05-07T20:25:11.000Z,1016.39
2019-05-07T20:29:57.000Z,1016.36
2019-05-07T20:34:44.000Z,1016.34
2019-05-07T20:39:31.000Z,1016.35
2019-05-07T20:44:18.000Z,1016.32
2019-05-07T20:49:05.000Z,1016.31
2019-05-07T20:53:52.000Z,1016.32
2019-05-07T20:58:39.000Z,1016.26
2019-05-07T21:03:26.000Z,1016.18
2019-05-07T21:08:14.000Z,1016.16
2019-05-07T21:13:00.000Z,1016.13
2019-05-07T21:17:47.000Z,1016.25
2019-05-07T21:22:34.000Z,1016.17
2019-05-07T21:27:21.000Z,1016.18
2019-05-07T21:32:08.000Z,1016.24
2019-05-07T21:36:55.000Z,1016.25
2019-05-07T21:41:42.000Z,1016.27
2019-05-07T21:46:29.000Z,1016.28
2019-05-07T21:51:16.000Z,1016.19
2019-05-07T21:56:05.000Z,1016.20
2019-05-07T22:00:51.000Z,1016.15
2019-05-07T22:05:38.000Z,1016.11
2019-05-07T22:10:25.000Z,1016.14
2019-05-07T22:15:12.000Z,1016.10
2019-05-07T22:19:59.000Z,1016.04
2019-05-07T22:24:47.000Z,1015.94
2019-05-07T22:29:33.000Z,1015.90
2019-05-07T22:34:20.000Z,1015.80
2019-05-07T22:39:07.000Z,1015.80
2019-05-07T22:43:54.000Z,1015.78
2019-05-07T22:48:43.000Z,1015.69
2019-05-07T22:53:29.000Z,1015.60
2019-05-07T22:58:16.000Z,1015.56
2019-05-07T23:03:03.000Z,1015.52
2019-05-07T23:07:52.000Z,1015.50
2019-05-07T23:12:37.000Z,1015.45
2019-05-07T23:17:23.000Z,1015.40
2019-05-07T23:22:10.000Z,1015.39
2019-05-07T23:26:57.000Z,1015.31
2019-05-07T23:31:45.000Z,1015.20
2019-05-07T23:36:32.000Z,1015.22
2019-05-07T23:41:19.000Z,1015.19
2019-05-07T23:46:06.000Z,1015.13
2019-05-07T23:50:53.000Z,1015.07
2019-05-07T23:55:40.000Z,1015.05
